createdAt,value
2023-03-26T00:02:34.061Z,95154.84
2023-03-26T00:05:20.198Z,95164.34
2023-03-26T00:08:08.898Z,95162.44
2023-03-26T00:10:54.819Z,95177.72
2023-03-26T00:13:43.889Z,95185.63
2023-03-26T00:16:31.356Z,95180.84
2023-03-26T00:19:17.316Z,95188.50
2023-03-26T00:22:03.876Z,95188.94
2023-03-26T00:24:51.316Z,95189.44
2023-03-26T00:27:38.168Z,95181.03
2023-03-26T00:30:24.003Z,95190.41
2023-03-26T00:33:11.959Z,95185.31
2023-03-26T00:36:02.457Z,95196.94
2023-03-26T00:38:49.968Z,95200.72
2023-03-26T00:41:37.187Z,95197.84
2023-03-26T00:44:23.627Z,95207.25
2023-03-26T00:47:09.070Z,95202.94
2023-03-26T00:49:55.114Z,95200.72
2023-03-26T00:52:43.930Z,95197.06
2023-03-26T00:56:01.677Z,95196.25
2023-03-26T00:58:50.166Z,95194.84
2023-03-26T01:01:59.150Z,95192.28
2023-03-26T01:04:57.705Z,95177.94
2023-03-26T01:07:50.425Z,95189.22
2023-03-26T01:10:41.145Z,95188.94
2023-03-26T01:13:27.173Z,95183.34
2023-03-26T01:16:27.280Z,95190.69
2023-03-26T01:19:44.831Z,95188.75
2023-03-26T01:22:30.709Z,95189.53
2023-03-26T01:25:17.156Z,95190.97
2023-03-26T01:28:06.050Z,95188.56
2023-03-26T01:31:01.458Z,95201.25
2023-03-26T01:33:54.987Z,95195.19
2023-03-26T01:36:55.913Z,95190.25
2023-03-26T01:40:07.076Z,95190.81
2023-03-26T01:43:32.310Z,95199.66
2023-03-26T01:46:19.529Z,95188.81
2023-03-26T01:49:12.986Z,95189.25
2023-03-26T01:51:59.417Z,95189.38
2023-03-26T01:54:46.735Z,95199.19
2023-03-26T01:57:47.495Z,95199.00
2023-03-26T02:00:37.696Z,95191.25
2023-03-26T02:03:34.394Z,95194.91
2023-03-26T02:06:25.865Z,95187.72
2023-03-26T02:09:16.141Z,95186.41
2023-03-26T02:12:03.911Z,95188.16
2023-03-26T02:14:50.004Z,95184.97
2023-03-26T02:17:40.402Z,95186.16
2023-03-26T02:20:30.150Z,95190.19
2023-03-26T02:23:15.835Z,95173.03
2023-03-26T02:26:10.420Z,95191.38
2023-03-26T02:29:08.731Z,95185.31
2023-03-26T02:31:56.406Z,95191.50
2023-03-26T02:34:42.986Z,95194.81
2023-03-26T02:37:30.473Z,95190.00
2023-03-26T02:40:25.185Z,95199.19
2023-03-26T02:43:11.296Z,95204.41
2023-03-26T02:45:58.578Z,95204.72
2023-03-26T02:49:05.505Z,95203.41
2023-03-26T02:51:56.193Z,95207.19
2023-03-26T02:54:45.664Z,95209.59
2023-03-26T02:57:41.634Z,95220.38
2023-03-26T03:00:36.560Z,95220.97
2023-03-26T03:03:49.357Z,95223.78
2023-03-26T03:06:57.697Z,95229.75
2023-03-26T03:09:46.448Z,95237.34
2023-03-26T03:12:53.102Z,95248.22
2023-03-26T03:15:39.188Z,95255.00
2023-03-26T03:18:25.161Z,95259.09
2023-03-26T03:21:11.077Z,95261.47
2023-03-26T03:23:59.797Z,95267.06
2023-03-26T03:26:56.891Z,95270.25
2023-03-26T03:29:55.880Z,95262.66
2023-03-26T03:33:02.477Z,95259.88
2023-03-26T03:35:50.389Z,95257.69
2023-03-26T03:38:38.404Z,95254.69
2023-03-26T03:41:24.690Z,95242.13
2023-03-26T03:44:10.451Z,95252.69
2023-03-26T03:46:57.077Z,95251.09
2023-03-26T03:49:42.983Z,95261.28
2023-03-26T03:52:29.176Z,95260.66
2023-03-26T03:55:15.541Z,95267.63
2023-03-26T03:58:09.430Z,95258.28
2023-03-26T04:01:00.950Z,95252.69
2023-03-26T04:04:19.226Z,95265.66
2023-03-26T04:07:17.382Z,95266.25
2023-03-26T04:10:21.411Z,95285.81
2023-03-26T04:13:25.791Z,95273.06
2023-03-26T04:16:33.730Z,95294.19
2023-03-26T04:19:19.934Z,95295.56
2023-03-26T04:22:06.533Z,95293.00
2023-03-26T04:24:58.407Z,95291.00
2023-03-26T04:27:50.663Z,95301.34
2023-03-26T04:31:00.945Z,95308.50
2023-03-26T04:34:09.794Z,95319.38
2023-03-26T04:37:03.541Z,95313.69
2023-03-26T04:39:54.462Z,95327.47
2023-03-26T04:42:58.410Z,95328.56
2023-03-26T04:46:04.564Z,95332.63
2023-03-26T04:48:56.887Z,95322.75
2023-03-26T04:51:46.238Z,95318.63
2023-03-26T04:54:52.082Z,95316.63
2023-03-26T04:57:46.181Z,95322.00
2023-03-26T05:00:57.905Z,95327.38
2023-03-26T05:03:45.962Z,95323.09
2023-03-26T05:06:34.490Z,95325.78
2023-03-26T05:09:26.781Z,95315.00
2023-03-26T05:12:45.013Z,95316.63
2023-03-26T05:15:41.389Z,95308.84
2023-03-26T05:18:32.420Z,95304.03
2023-03-26T05:21:19.827Z,95322.00
2023-03-26T05:24:06.460Z,95323.88
2023-03-26T05:26:52.268Z,95322.00
2023-03-26T05:29:41.967Z,95319.88
2023-03-26T05:32:28.279Z,95309.22
2023-03-26T05:35:16.986Z,95314.59
2023-03-26T05:38:03.090Z,95325.56
2023-03-26T05:40:48.754Z,95325.88
2023-03-26T05:43:38.001Z,95326.66
2023-03-26T05:46:30.613Z,95324.19
2023-03-26T05:49:18.187Z,95327.38
2023-03-26T05:52:03.916Z,95327.38
2023-03-26T05:55:09.601Z,95331.56
2023-03-26T05:58:32.941Z,95335.56
2023-03-26T06:01:38.636Z,95337.38
2023-03-26T06:04:57.236Z,95332.22
2023-03-26T06:08:01.324Z,95337.78
2023-03-26T06:11:12.745Z,95332.63
2023-03-26T06:13:58.968Z,95326.56
2023-03-26T06:16:45.358Z,95330.97
2023-03-26T06:19:36.920Z,95324.47
2023-03-26T06:22:42.053Z,95329.78
2023-03-26T06:25:51.344Z,95325.22
2023-03-26T06:28:56.126Z,95328.09
2023-03-26T06:32:12.503Z,95325.31
2023-03-26T06:35:19.273Z,95335.88
2023-03-26T06:38:05.336Z,95330.72
2023-03-26T06:40:54.374Z,95335.69
2023-03-26T06:43:46.454Z,95332.91
2023-03-26T06:46:55.550Z,95336.50
2023-03-26T06:50:00.239Z,95338.50
2023-03-26T06:53:06.466Z,95325.53
2023-03-26T06:56:03.319Z,95344.69
2023-03-26T06:59:18.772Z,95334.88
2023-03-26T07:02:24.552Z,95331.03
2023-03-26T07:05:42.712Z,95330.09
2023-03-26T07:08:47.913Z,95334.50
2023-03-26T07:12:02.711Z,95327.28
2023-03-26T07:15:20.654Z,95337.84
2023-03-26T07:18:25.813Z,95332.81
2023-03-26T07:21:12.925Z,95335.59
2023-03-26T07:24:02.023Z,95333.78
2023-03-26T07:27:17.087Z,95327.94
2023-03-26T07:30:20.445Z,95330.22
2023-03-26T07:34:02.443Z,95317.91
2023-03-26T07:37:52.842Z,95320.84
2023-03-26T07:40:38.962Z,95322.66
2023-03-26T07:44:09.509Z,95323.34
2023-03-26T07:46:57.244Z,95327.06
2023-03-26T07:49:57.944Z,95308.50
2023-03-26T07:53:04.317Z,95316.34
2023-03-26T07:56:18.024Z,95299.84
2023-03-26T07:59:46.047Z,95295.78
2023-03-26T08:03:22.073Z,95292.16
2023-03-26T08:06:26.347Z,95297.78
2023-03-26T08:09:27.744Z,95291.44
2023-03-26T08:13:04.749Z,95293.84
2023-03-26T08:16:12.098Z,95282.91
2023-03-26T08:19:19.954Z,95275.72
2023-03-26T08:22:13.767Z,95278.13
2023-03-26T08:25:02.595Z,95277.63
2023-03-26T08:28:02.455Z,95276.81
2023-03-26T08:30:48.689Z,95265.00
2023-03-26T08:33:38.394Z,95255.00
2023-03-26T08:36:24.209Z,95250.19
2023-03-26T08:39:10.099Z,95252.84
2023-03-26T08:42:11.373Z,95249.09
2023-03-26T08:45:23.199Z,95237.84
2023-03-26T08:48:21.236Z,95235.81
2023-03-26T08:51:35.042Z,95226.31
2023-03-26T08:54:42.269Z,95222.66
2023-03-26T08:57:41.219Z,95210.78
2023-03-26T09:00:48.880Z,95213.09
2023-03-26T09:03:59.166Z,95204.22
2023-03-26T09:06:45.415Z,95203.13
2023-03-26T09:09:50.390Z,95211.34
2023-03-26T09:12:57.513Z,95210.66
2023-03-26T09:16:31.771Z,95200.03
2023-03-26T09:19:55.258Z,95202.78
2023-03-26T09:23:03.028Z,95199.44
2023-03-26T09:26:08.992Z,95192.19
2023-03-26T09:29:09.100Z,95189.72
2023-03-26T09:32:32.482Z,95187.25
2023-03-26T09:36:01.910Z,95184.06
2023-03-26T09:39:04.174Z,95190.34
2023-03-26T09:42:19.292Z,95177.63
2023-03-26T09:45:16.830Z,95174.16
2023-03-26T09:48:20.990Z,95167.56
2023-03-26T09:51:41.615Z,95155.91
2023-03-26T09:54:46.531Z,95148.31
2023-03-26T09:57:41.535Z,95157.81
2023-03-26T10:00:28.575Z,95152.34
2023-03-26T10:03:17.795Z,95145.22
2023-03-26T10:06:31.772Z,95136.19
2023-03-26T10:09:23.043Z,95145.06
2023-03-26T10:12:24.400Z,95135.88
2023-03-26T10:15:25.388Z,95129.91
2023-03-26T10:18:40.026Z,95121.56
2023-03-26T10:21:36.034Z,95125.75
2023-03-26T10:24:41.050Z,95115.00
2023-03-26T10:28:03.529Z,95120.72
2023-03-26T10:31:19.698Z,95109.22
2023-03-26T10:34:32.985Z,95119.66
2023-03-26T10:37:52.549Z,95115.44
2023-03-26T10:41:15.211Z,95101.06
2023-03-26T10:44:27.420Z,95097.28
2023-03-26T10:47:47.043Z,95100.56
2023-03-26T10:50:53.525Z,95097.38
2023-03-26T10:53:51.115Z,95094.94
2023-03-26T10:56:49.416Z,95109.34
2023-03-26T10:59:35.283Z,95101.81
2023-03-26T11:02:29.123Z,95094.94
2023-03-26T11:05:39.902Z,95085.16
2023-03-26T11:08:31.636Z,95083.69
2023-03-26T11:11:42.256Z,95068.97
2023-03-26T11:14:35.361Z,95061.88
2023-03-26T11:17:41.186Z,95060.91
2023-03-26T11:21:18.044Z,95057.75
2023-03-26T11:24:26.131Z,95038.88
2023-03-26T11:27:49.553Z,95049.44
2023-03-26T11:30:41.454Z,95038.44
2023-03-26T11:33:32.602Z,95018.00
2023-03-26T11:36:26.312Z,95011.66
2023-03-26T11:39:15.685Z,95012.00
2023-03-26T11:42:11.256Z,95009.72
2023-03-26T11:45:24.353Z,95000.13
2023-03-26T11:48:32.030Z,94997.53
2023-03-26T11:51:36.790Z,94986.00
2023-03-26T11:54:22.847Z,94985.44
2023-03-26T11:57:16.878Z,94989.69
2023-03-26T12:00:16.608Z,94981.44
2023-03-26T12:03:02.288Z,94985.59
2023-03-26T12:05:59.080Z,94986.75
2023-03-26T12:08:45.055Z,94970.81
2023-03-26T12:11:35.839Z,94964.50
2023-03-26T12:14:25.337Z,94960.41
2023-03-26T12:17:31.359Z,94956.94
2023-03-26T12:20:24.937Z,94951.19
2023-03-26T12:23:35.079Z,94952.66
2023-03-26T12:26:37.025Z,94950.59
2023-03-26T12:29:23.305Z,94938.44
2023-03-26T12:32:16.005Z,94935.94
2023-03-26T12:35:07.547Z,94924.06
2023-03-26T12:37:55.894Z,94932.03
2023-03-26T12:40:43.194Z,94921.59
2023-03-26T12:44:49.799Z,94923.50
2023-03-26T12:47:57.366Z,94908.72
2023-03-26T12:49:55.347Z,94896.34
2023-03-26T12:53:09.067Z,94900.94
2023-03-26T12:56:01.666Z,94906.59
2023-03-26T12:59:06.727Z,94888.91
2023-03-26T13:02:06.827Z,94891.47
2023-03-26T13:05:09.764Z,94887.56
2023-03-26T13:07:58.392Z,94866.38
2023-03-26T13:11:05.869Z,94870.03
2023-03-26T13:14:03.130Z,94862.81
2023-03-26T13:17:04.965Z,94866.25
2023-03-26T13:19:54.009Z,94858.00
2023-03-26T13:23:02.148Z,94856.25
2023-03-26T13:26:33.030Z,94836.00
2023-03-26T13:29:36.637Z,94843.31
2023-03-26T13:32:43.091Z,94848.94
2023-03-26T13:35:39.296Z,94844.66
2023-03-26T13:38:37.716Z,94831.00
2023-03-26T13:41:32.304Z,94827.31
2023-03-26T13:44:43.504Z,94811.66
2023-03-26T13:47:31.626Z,94796.53
2023-03-26T13:50:31.011Z,94802.78
2023-03-26T13:53:22.299Z,94804.19
2023-03-26T13:56:12.130Z,94790.66
2023-03-26T13:59:02.228Z,94802.53
2023-03-26T14:01:57.444Z,94799.88
2023-03-26T14:04:48.602Z,94805.00
2023-03-26T14:07:39.319Z,94797.13
2023-03-26T14:10:28.947Z,94795.38
2023-03-26T14:13:36.579Z,94787.81
2023-03-26T14:16:42.446Z,94779.38
2023-03-26T14:19:41.772Z,94776.00
2023-03-26T14:22:30.620Z,94765.06
2023-03-26T14:25:56.583Z,94770.84
2023-03-26T14:28:57.845Z,94768.25
2023-03-26T14:31:53.910Z,94754.81
2023-03-26T14:34:55.807Z,94759.13
2023-03-26T14:38:21.200Z,94753.38
2023-03-26T14:41:24.741Z,94756.50
2023-03-26T14:44:27.852Z,94753.50
2023-03-26T14:47:22.801Z,94758.78
2023-03-26T14:50:50.501Z,94747.44
2023-03-26T14:53:51.670Z,94739.44
2023-03-26T14:57:05.187Z,94741.00
2023-03-26T15:00:15.793Z,94739.13
2023-03-26T15:03:17.416Z,94743.72
2023-03-26T15:06:34.245Z,94742.34
2023-03-26T15:09:42.679Z,94740.78
2023-03-26T15:13:10.183Z,94744.78
2023-03-26T15:16:09.389Z,94732.53
2023-03-26T15:19:31.701Z,94729.97
2023-03-26T15:22:54.117Z,94726.94
2023-03-26T15:26:04.487Z,94736.41
2023-03-26T15:29:05.020Z,94722.69
2023-03-26T15:32:09.034Z,94730.13
2023-03-26T15:35:06.058Z,94729.28
2023-03-26T15:38:24.406Z,94722.97
2023-03-26T15:41:47.530Z,94713.88
2023-03-26T15:44:54.396Z,94715.72
2023-03-26T15:47:50.012Z,94721.13
2023-03-26T15:51:02.302Z,94717.09
2023-03-26T15:54:20.719Z,94712.31
2023-03-26T15:57:39.237Z,94716.88
2023-03-26T16:00:29.130Z,94714.41
2023-03-26T16:03:25.599Z,94708.88
2023-03-26T16:06:15.882Z,94716.72
2023-03-26T16:09:29.037Z,94709.63
2023-03-26T16:12:17.902Z,94708.06
2023-03-26T16:15:25.175Z,94699.75
2023-03-26T16:18:12.446Z,94700.91
2023-03-26T16:21:31.390Z,94698.09
2023-03-26T16:24:25.051Z,94694.47
2023-03-26T16:27:34.327Z,94692.84
2023-03-26T16:30:30.907Z,94690.47
2023-03-26T16:33:21.291Z,94680.19
2023-03-26T16:36:34.805Z,94685.25
2023-03-26T16:39:39.244Z,94680.09
2023-03-26T16:42:25.010Z,94673.41
2023-03-26T16:45:50.029Z,94664.31
2023-03-26T16:48:50.083Z,94670.88
2023-03-26T16:51:55.686Z,94673.50
2023-03-26T16:54:50.796Z,94671.91
2023-03-26T16:57:43.934Z,94668.72
2023-03-26T17:01:03.995Z,94666.34
2023-03-26T17:04:00.847Z,94671.75
2023-03-26T17:07:01.906Z,94672.44
2023-03-26T17:10:14.585Z,94673.63
2023-03-26T17:13:12.071Z,94669.25
2023-03-26T17:16:26.475Z,94676.22
2023-03-26T17:19:15.638Z,94666.81
2023-03-26T17:22:21.583Z,94666.69
2023-03-26T17:25:36.950Z,94664.28
2023-03-26T17:28:37.855Z,94674.78
2023-03-26T17:31:36.405Z,94669.66
2023-03-26T17:35:03.680Z,94669.97
2023-03-26T17:37:49.835Z,94663.25
2023-03-26T17:40:48.096Z,94663.97
2023-03-26T17:43:44.142Z,94670.94
2023-03-26T17:46:50.271Z,94675.47
2023-03-26T17:49:37.537Z,94669.91
2023-03-26T17:52:36.390Z,94665.94
2023-03-26T17:55:27.851Z,94659.56
2023-03-26T17:58:44.710Z,94668.09
2023-03-26T18:01:42.879Z,94669.59
2023-03-26T18:04:35.726Z,94667.28
2023-03-26T18:07:49.740Z,94667.59
2023-03-26T18:10:41.363Z,94664.03
2023-03-26T18:14:09.308Z,94656.88
2023-03-26T18:17:00.102Z,94664.59
2023-03-26T18:19:56.129Z,94668.38
2023-03-26T18:22:44.822Z,94664.38
2023-03-26T18:25:33.922Z,94666.69
2023-03-26T18:28:29.492Z,94658.00
2023-03-26T18:31:26.489Z,94663.06
2023-03-26T18:34:18.556Z,94657.97
2023-03-26T18:37:21.128Z,94652.75
2023-03-26T18:40:19.243Z,94656.25
2023-03-26T18:43:06.319Z,94660.88
2023-03-26T18:45:53.559Z,94655.66
2023-03-26T18:48:39.718Z,94654.44
2023-03-26T18:51:26.585Z,94657.44
2023-03-26T18:54:19.906Z,94660.50
2023-03-26T18:57:15.493Z,94657.34
2023-03-26T19:00:18.655Z,94660.34
2023-03-26T19:03:07.025Z,94654.88
2023-03-26T19:05:56.715Z,94657.56
2023-03-26T19:08:44.865Z,94648.84
2023-03-26T19:11:31.042Z,94654.28
2023-03-26T19:14:19.421Z,94655.34
2023-03-26T19:17:07.067Z,94637.22
2023-03-26T19:19:54.964Z,94653.22
2023-03-26T19:22:46.276Z,94639.03
2023-03-26T19:25:39.314Z,94647.13
2023-03-26T19:28:33.729Z,94641.44
2023-03-26T19:31:23.817Z,94646.00
2023-03-26T19:34:13.910Z,94653.03
2023-03-26T19:37:01.938Z,94656.91
2023-03-26T19:39:51.395Z,94659.94
2023-03-26T19:42:43.766Z,94659.06
2023-03-26T19:45:34.264Z,94662.06
2023-03-26T19:48:45.331Z,94665.94
2023-03-26T19:51:34.241Z,94658.03
2023-03-26T19:54:20.468Z,94652.53
2023-03-26T19:57:06.344Z,94650.53
2023-03-26T19:59:52.282Z,94635.25
2023-03-26T20:02:38.282Z,94628.09
2023-03-26T20:05:27.502Z,94631.97
2023-03-26T20:08:15.403Z,94618.22
2023-03-26T20:11:01.443Z,94636.53
2023-03-26T20:13:48.459Z,94637.25
2023-03-26T20:16:35.310Z,94636.38
2023-03-26T20:19:21.104Z,94632.44
2023-03-26T20:22:12.505Z,94625.34
2023-03-26T20:24:58.328Z,94620.63
2023-03-26T20:27:55.283Z,94623.19
2023-03-26T20:30:41.658Z,94620.47
2023-03-26T20:33:28.000Z,94610.19
2023-03-26T20:36:14.664Z,94599.25
2023-03-26T20:39:22.362Z,94593.63
2023-03-26T20:42:10.071Z,94589.94
2023-03-26T20:44:56.754Z,94594.59
2023-03-26T20:47:45.359Z,94587.06
2023-03-26T20:50:35.691Z,94582.34
2023-03-26T20:53:21.721Z,94583.81
2023-03-26T20:56:17.775Z,94587.97
2023-03-26T20:59:10.927Z,94569.47
2023-03-26T21:01:58.168Z,94564.75
2023-03-26T21:04:45.153Z,94559.13
2023-03-26T21:07:31.336Z,94564.84
2023-03-26T21:10:19.395Z,94565.88
2023-03-26T21:13:32.681Z,94550.91
2023-03-26T21:16:18.948Z,94553.97
2023-03-26T21:19:05.709Z,94554.75
2023-03-26T21:22:09.205Z,94543.81
2023-03-26T21:25:17.288Z,94530.59
2023-03-26T21:28:32.269Z,94529.03
2023-03-26T21:31:31.124Z,94530.41
2023-03-26T21:34:17.190Z,94526.38
2023-03-26T21:37:03.658Z,94516.06
2023-03-26T21:39:49.512Z,94523.75
2023-03-26T21:42:36.202Z,94510.81
2023-03-26T21:45:22.992Z,94512.72
2023-03-26T21:48:10.504Z,94506.84
2023-03-26T21:51:02.554Z,94503.34
2023-03-26T21:53:49.003Z,94507.19
2023-03-26T21:56:46.808Z,94498.63
2023-03-26T21:59:39.753Z,94488.44
2023-03-26T22:02:45.664Z,94483.84
2023-03-26T22:05:42.037Z,94487.97
2023-03-26T22:08:39.968Z,94482.38
2023-03-26T22:11:26.121Z,94481.47
2023-03-26T22:14:13.476Z,94474.47
2023-03-26T22:16:59.222Z,94461.19
2023-03-26T22:19:44.859Z,94457.13
2023-03-26T22:22:30.890Z,94450.56
2023-03-26T22:25:20.949Z,94457.13
2023-03-26T22:28:07.103Z,94453.28
2023-03-26T22:30:53.303Z,94448.91
2023-03-26T22:33:43.014Z,94450.63
2023-03-26T22:36:28.987Z,94445.72
2023-03-26T22:39:14.778Z,94449.38
2023-03-26T22:42:02.678Z,94444.91
2023-03-26T22:44:48.576Z,94438.81
2023-03-26T22:47:35.466Z,94442.91
2023-03-26T22:50:21.982Z,94443.25
2023-03-26T22:53:08.498Z,94443.59
2023-03-26T22:55:54.287Z,94449.47
2023-03-26T22:58:40.540Z,94432.41
2023-03-26T23:01:26.487Z,94428.94
2023-03-26T23:04:12.346Z,94414.47
2023-03-26T23:07:17.202Z,94419.22
2023-03-26T23:10:03.498Z,94420.59
2023-03-26T23:12:49.851Z,94423.75
2023-03-26T23:15:35.442Z,94419.91
2023-03-26T23:18:22.515Z,94412.03
2023-03-26T23:21:14.603Z,94414.75
2023-03-26T23:24:00.493Z,94404.94
2023-03-26T23:29:35.683Z,94430.34
2023-03-26T23:32:25.207Z,94425.63
2023-03-26T23:35:11.368Z,94428.78
2023-03-26T23:37:57.102Z,94424.94
2023-03-26T23:40:44.378Z,94417.94
2023-03-26T23:43:54.137Z,94411.63
2023-03-26T23:46:44.222Z,94393.59
2023-03-26T23:49:30.135Z,94392.69
2023-03-26T23:52:16.730Z,94400.16
2023-03-26T23:55:02.721Z,94399.25
2023-03-26T23:57:48.712Z,94372.66
